sensor_id;sensor_type;location;lat;lon;timestamp;pressure;altitude;pressure_sealevel;temperature;humidity
70254;BME280;57649;42.968;1.608;2024-03-08T00:00:15;96005.53;;;7.27;100.00
70254;BME280;57649;42.968;1.608;2024-03-08T00:02:44;96000.19;;;7.12;100.00
70254;BME280;57649;42.968;1.608;2024-03-08T00:05:10;95997.00;;;7.17;100.00
70254;BME280;57649;42.968;1.608;2024-03-08T00:07:38;95990.94;;;7.23;100.00
70254;BME280;57649;42.968;1.608;2024-03-08T00:10:05;95983.69;;;7.17;100.00
70254;BME280;57649;42.968;1.608;2024-03-08T00:12:31;95976.06;;;7.13;100.00
70254;BME280;57649;42.968;1.608;2024-03-08T00:14:57;95979.91;;;7.11;100.00
70254;BME280;57649;42.968;1.608;2024-03-08T00:17:22;95969.81;;;7.06;100.00
70254;BME280;57649;42.968;1.608;2024-03-08T00:19:48;95952.72;;;7.01;100.00
70254;BME280;57649;42.968;1.608;2024-03-08T00:22:15;95951.63;;;7.10;100.00
70254;BME280;57649;42.968;1.608;2024-03-08T00:24:41;95928.16;;;6.99;100.00
70254;BME280;57649;42.968;1.608;2024-03-08T00:27:06;95928.91;;;7.07;100.00
70254;BME280;57649;42.968;1.608;2024-03-08T00:29:32;95917.78;;;6.89;100.00
70254;BME280;57649;42.968;1.608;2024-03-08T00:31:57;95927.84;;;6.79;100.00
70254;BME280;57649;42.968;1.608;2024-03-08T00:34:23;95920.44;;;6.51;100.00
70254;BME280;57649;42.968;1.608;2024-03-08T00:36:48;95933.78;;;6.66;100.00
70254;BME280;57649;42.968;1.608;2024-03-08T00:39:14;95920.94;;;6.69;100.00
70254;BME280;57649;42.968;1.608;2024-03-08T00:41:39;95914.97;;;6.67;100.00
70254;BME280;57649;42.968;1.608;2024-03-08T00:44:05;95920.50;;;6.81;100.00
70254;BME280;57649;42.968;1.608;2024-03-08T00:46:30;95920.59;;;6.87;100.00
70254;BME280;57649;42.968;1.608;2024-03-08T00:48:56;95918.88;;;6.94;100.00
70254;BME280;57649;42.968;1.608;2024-03-08T00:51:22;95913.75;;;6.93;100.00
70254;BME280;57649;42.968;1.608;2024-03-08T00:53:47;95902.81;;;6.88;100.00
70254;BME280;57649;42.968;1.608;2024-03-08T00:56:13;95912.66;;;7.02;100.00
70254;BME280;57649;42.968;1.608;2024-03-08T00:58:38;95898.13;;;6.90;100.00
70254;BME280;57649;42.968;1.608;2024-03-08T01:01:04;95893.19;;;7.02;100.00
70254;BME280;57649;42.968;1.608;2024-03-08T01:03:30;95908.72;;;7.13;100.00
70254;BME280;57649;42.968;1.608;2024-03-08T01:05:59;95899.16;;;7.04;100.00
70254;BME280;57649;42.968;1.608;2024-03-08T01:08:26;95905.13;;;7.06;100.00
70254;BME280;57649;42.968;1.608;2024-03-08T01:10:52;95897.97;;;7.06;100.00
70254;BME280;57649;42.968;1.608;2024-03-08T01:13:18;95886.59;;;7.12;100.00
70254;BME280;57649;42.968;1.608;2024-03-08T01:15:44;95888.81;;;7.09;100.00
70254;BME280;57649;42.968;1.608;2024-03-08T01:18:10;95891.63;;;7.07;100.00
70254;BME280;57649;42.968;1.608;2024-03-08T01:20:36;95888.97;;;7.07;100.00
70254;BME280;57649;42.968;1.608;2024-03-08T01:23:01;95869.31;;;6.93;100.00
70254;BME280;57649;42.968;1.608;2024-03-08T01:25:27;95863.00;;;6.80;100.00
70254;BME280;57649;42.968;1.608;2024-03-08T01:27:52;95865.38;;;6.89;100.00
70254;BME280;57649;42.968;1.608;2024-03-08T01:30:19;95856.47;;;6.67;100.00
70254;BME280;57649;42.968;1.608;2024-03-08T01:32:44;95852.13;;;6.51;100.00
70254;BME280;57649;42.968;1.608;2024-03-08T01:35:10;95835.81;;;6.54;100.00
70254;BME280;57649;42.968;1.608;2024-03-08T01:37:35;95839.88;;;6.50;100.00
70254;BME280;57649;42.968;1.608;2024-03-08T01:40:01;95841.03;;;6.48;100.00
70254;BME280;57649;42.968;1.608;2024-03-08T01:42:28;95831.47;;;6.39;100.00
70254;BME280;57649;42.968;1.608;2024-03-08T01:44:53;95816.13;;;6.49;100.00
70254;BME280;57649;42.968;1.608;2024-03-08T01:47:20;95801.56;;;6.60;100.00
70254;BME280;57649;42.968;1.608;2024-03-08T01:49:49;95811.25;;;6.52;100.00
70254;BME280;57649;42.968;1.608;2024-03-08T01:52:15;95801.72;;;6.43;100.00
70254;BME280;57649;42.968;1.608;2024-03-08T01:54:41;95796.75;;;6.40;100.00
70254;BME280;57649;42.968;1.608;2024-03-08T01:57:07;95776.66;;;6.23;100.00
70254;BME280;57649;42.968;1.608;2024-03-08T01:59:33;95775.91;;;6.14;100.00
70254;BME280;57649;42.968;1.608;2024-03-08T02:02:01;95758.22;;;6.06;100.00
70254;BME280;57649;42.968;1.608;2024-03-08T02:04:29;95746.13;;;6.04;100.00
70254;BME280;57649;42.968;1.608;2024-03-08T02:06:56;95752.91;;;6.06;100.00
70254;BME280;57649;42.968;1.608;2024-03-08T02:09:23;95747.50;;;6.14;100.00
70254;BME280;57649;42.968;1.608;2024-03-08T02:11:50;95750.34;;;6.13;100.00
70254;BME280;57649;42.968;1.608;2024-03-08T02:14:17;95749.91;;;6.24;100.00
70254;BME280;57649;42.968;1.608;2024-03-08T02:16:42;95745.22;;;6.26;100.00
70254;BME280;57649;42.968;1.608;2024-03-08T02:19:07;95733.50;;;6.35;100.00
70254;BME280;57649;42.968;1.608;2024-03-08T02:21:35;95727.38;;;6.35;100.00
70254;BME280;57649;42.968;1.608;2024-03-08T02:24:01;95744.41;;;6.41;100.00
70254;BME280;57649;42.968;1.608;2024-03-08T02:26:27;95740.28;;;6.23;100.00
70254;BME280;57649;42.968;1.608;2024-03-08T02:28:53;95736.91;;;6.29;100.00
70254;BME280;57649;42.968;1.608;2024-03-08T02:31:19;95743.88;;;6.30;100.00
70254;BME280;57649;42.968;1.608;2024-03-08T02:33:44;95741.75;;;6.26;100.00
70254;BME280;57649;42.968;1.608;2024-03-08T02:36:12;95726.72;;;6.33;100.00
70254;BME280;57649;42.968;1.608;2024-03-08T02:38:38;95736.63;;;6.39;100.00
70254;BME280;57649;42.968;1.608;2024-03-08T02:41:06;95740.56;;;6.28;100.00
70254;BME280;57649;42.968;1.608;2024-03-08T02:43:33;95728.09;;;6.14;100.00
70254;BME280;57649;42.968;1.608;2024-03-08T02:45:59;95744.56;;;6.24;100.00
70254;BME280;57649;42.968;1.608;2024-03-08T02:48:25;95729.81;;;6.07;100.00
70254;BME280;57649;42.968;1.608;2024-03-08T02:50:51;95724.97;;;5.95;100.00
70254;BME280;57649;42.968;1.608;2024-03-08T02:53:16;95734.38;;;5.98;100.00
70254;BME280;57649;42.968;1.608;2024-03-08T02:55:44;95728.72;;;6.01;100.00
70254;BME280;57649;42.968;1.608;2024-03-08T02:58:09;95737.63;;;6.08;100.00
70254;BME280;57649;42.968;1.608;2024-03-08T03:00:36;95733.41;;;6.14;100.00
70254;BME280;57649;42.968;1.608;2024-03-08T03:03:01;95724.75;;;5.97;100.00
70254;BME280;57649;42.968;1.608;2024-03-08T03:05:28;95715.72;;;6.06;100.00
70254;BME280;57649;42.968;1.608;2024-03-08T03:07:55;95696.22;;;6.14;100.00
70254;BME280;57649;42.968;1.608;2024-03-08T03:10:20;95689.69;;;6.31;100.00
70254;BME280;57649;42.968;1.608;2024-03-08T03:12:47;95684.00;;;6.49;100.00
70254;BME280;57649;42.968;1.608;2024-03-08T03:15:14;95688.56;;;6.55;100.00
70254;BME280;57649;42.968;1.608;2024-03-08T03:17:40;95682.16;;;6.65;100.00
70254;BME280;57649;42.968;1.608;2024-03-08T03:20:08;95695.81;;;6.77;100.00
70254;BME280;57649;42.968;1.608;2024-03-08T03:22:38;95684.25;;;6.69;100.00
70254;BME280;57649;42.968;1.608;2024-03-08T03:25:04;95671.81;;;6.55;100.00
70254;BME280;57649;42.968;1.608;2024-03-08T03:27:29;95657.72;;;6.40;100.00
70254;BME280;57649;42.968;1.608;2024-03-08T03:29:56;95663.75;;;6.33;100.00
70254;BME280;57649;42.968;1.608;2024-03-08T03:32:23;95659.94;;;6.21;100.00
70254;BME280;57649;42.968;1.608;2024-03-08T03:34:48;95657.81;;;6.16;100.00
70254;BME280;57649;42.968;1.608;2024-03-08T03:37:18;95653.31;;;6.17;100.00
70254;BME280;57649;42.968;1.608;2024-03-08T03:39:45;95644.44;;;6.25;100.00
70254;BME280;57649;42.968;1.608;2024-03-08T03:42:19;95632.31;;;6.37;100.00
70254;BME280;57649;42.968;1.608;2024-03-08T03:44:48;95632.50;;;6.35;100.00
70254;BME280;57649;42.968;1.608;2024-03-08T03:47:16;95631.88;;;6.33;100.00
70254;BME280;57649;42.968;1.608;2024-03-08T03:49:42;95643.41;;;6.41;100.00
70254;BME280;57649;42.968;1.608;2024-03-08T03:52:08;95633.16;;;6.38;100.00
70254;BME280;57649;42.968;1.608;2024-03-08T03:54:33;95632.50;;;6.35;100.00
70254;BME280;57649;42.968;1.608;2024-03-08T03:56:59;95630.44;;;6.16;100.00
70254;BME280;57649;42.968;1.608;2024-03-08T03:59:25;95626.03;;;6.23;100.00
70254;BME280;57649;42.968;1.608;2024-03-08T04:01:51;95638.38;;;6.31;100.00
70254;BME280;57649;42.968;1.608;2024-03-08T04:04:16;95650.47;;;6.33;100.00
70254;BME280;57649;42.968;1.608;2024-03-08T04:06:42;95648.38;;;6.29;100.00
70254;BME280;57649;42.968;1.608;2024-03-08T04:09:07;95641.97;;;6.23;100.00
70254;BME280;57649;42.968;1.608;2024-03-08T04:11:33;95666.22;;;6.35;100.00
70254;BME280;57649;42.968;1.608;2024-03-08T04:13:58;95656.69;;;6.41;100.00
70254;BME280;57649;42.968;1.608;2024-03-08T04:16:24;95651.66;;;6.46;100.00
70254;BME280;57649;42.968;1.608;2024-03-08T04:18:51;95632.84;;;6.62;100.00
70254;BME280;57649;42.968;1.608;2024-03-08T04:21:17;95621.66;;;6.52;100.00
70254;BME280;57649;42.968;1.608;2024-03-08T04:23:42;95625.50;;;6.64;100.00
70254;BME280;57649;42.968;1.608;2024-03-08T04:26:10;95618.72;;;6.62;100.00
70254;BME280;57649;42.968;1.608;2024-03-08T04:28:35;95618.72;;;6.62;100.00
70254;BME280;57649;42.968;1.608;2024-03-08T04:31:03;95607.50;;;6.45;100.00
70254;BME280;57649;42.968;1.608;2024-03-08T04:33:28;95616.13;;;6.32;100.00
70254;BME280;57649;42.968;1.608;2024-03-08T04:35:54;95612.34;;;6.26;100.00
70254;BME280;57649;42.968;1.608;2024-03-08T04:38:19;95605.44;;;6.10;100.00
70254;BME280;57649;42.968;1.608;2024-03-08T04:40:45;95605.66;;;6.45;100.00
70254;BME280;57649;42.968;1.608;2024-03-08T04:43:10;95587.78;;;6.39;100.00
70254;BME280;57649;42.968;1.608;2024-03-08T04:45:36;95592.63;;;6.50;100.00
70254;BME280;57649;42.968;1.608;2024-03-08T04:48:02;95574.84;;;6.51;100.00
70254;BME280;57649;42.968;1.608;2024-03-08T04:50:27;95566.69;;;6.52;100.00
70254;BME280;57649;42.968;1.608;2024-03-08T04:52:56;95561.03;;;6.62;100.00
70254;BME280;57649;42.968;1.608;2024-03-08T04:55:21;95552.53;;;6.52;100.00
70254;BME280;57649;42.968;1.608;2024-03-08T04:57:48;95544.13;;;6.48;100.00
70254;BME280;57649;42.968;1.608;2024-03-08T05:00:14;95537.03;;;6.55;100.00
70254;BME280;57649;42.968;1.608;2024-03-08T05:02:41;95542.03;;;6.44;100.00
70254;BME280;57649;42.968;1.608;2024-03-08T05:05:07;95559.75;;;6.36;100.00
70254;BME280;57649;42.968;1.608;2024-03-08T05:07:42;95542.25;;;6.27;100.00
70254;BME280;57649;42.968;1.608;2024-03-08T05:10:11;95539.59;;;6.27;100.00
70254;BME280;57649;42.968;1.608;2024-03-08T05:12:36;95544.56;;;6.30;100.00
70254;BME280;57649;42.968;1.608;2024-03-08T05:15:04;95531.63;;;6.27;100.00
70254;BME280;57649;42.968;1.608;2024-03-08T05:17:30;95515.69;;;6.27;100.00
70254;BME280;57649;42.968;1.608;2024-03-08T05:19:55;95540.25;;;6.29;100.00
70254;BME280;57649;42.968;1.608;2024-03-08T05:22:21;95528.66;;;6.37;100.00
70254;BME280;57649;42.968;1.608;2024-03-08T05:24:46;95512.41;;;6.25;100.00
70254;BME280;57649;42.968;1.608;2024-03-08T05:27:12;95531.22;;;6.45;100.00
70254;BME280;57649;42.968;1.608;2024-03-08T05:29:38;95552.34;;;6.53;100.00
70254;BME280;57649;42.968;1.608;2024-03-08T05:32:03;95567.50;;;6.53;100.00
70254;BME280;57649;42.968;1.608;2024-03-08T05:34:29;95584.66;;;6.50;100.00
70254;BME280;57649;42.968;1.608;2024-03-08T05:36:55;95599.75;;;6.50;100.00
70254;BME280;57649;42.968;1.608;2024-03-08T05:39:20;95598.13;;;6.49;100.00
70254;BME280;57649;42.968;1.608;2024-03-08T05:41:46;95604.44;;;6.48;100.00
70254;BME280;57649;42.968;1.608;2024-03-08T05:44:13;95601.78;;;6.48;100.00
70254;BME280;57649;42.968;1.608;2024-03-08T05:46:39;95603.72;;;6.54;100.00
70254;BME280;57649;42.968;1.608;2024-03-08T05:49:05;95609.66;;;6.56;100.00
70254;BME280;57649;42.968;1.608;2024-03-08T05:51:36;95610.03;;;6.53;100.00
70254;BME280;57649;42.968;1.608;2024-03-08T05:54:02;95612.06;;;6.51;100.00
70254;BME280;57649;42.968;1.608;2024-03-08T05:56:32;95612.50;;;6.54;100.00
70254;BME280;57649;42.968;1.608;2024-03-08T05:58:58;95614.75;;;6.36;100.00
70254;BME280;57649;42.968;1.608;2024-03-08T06:01:26;95608.00;;;6.55;100.00
70254;BME280;57649;42.968;1.608;2024-03-08T06:03:53;95614.53;;;6.52;100.00
70254;BME280;57649;42.968;1.608;2024-03-08T06:06:21;95617.28;;;6.44;100.00
70254;BME280;57649;42.968;1.608;2024-03-08T06:08:47;95629.75;;;6.44;100.00
70254;BME280;57649;42.968;1.608;2024-03-08T06:11:14;95636.72;;;6.45;100.00
70254;BME280;57649;42.968;1.608;2024-03-08T06:13:40;95640.13;;;6.39;100.00
70254;BME280;57649;42.968;1.608;2024-03-08T06:16:05;95647.72;;;6.42;100.00
70254;BME280;57649;42.968;1.608;2024-03-08T06:18:33;95625.38;;;6.36;100.00
70254;BME280;57649;42.968;1.608;2024-03-08T06:20:59;95618.41;;;6.35;100.00
70254;BME280;57649;42.968;1.608;2024-03-08T06:23:25;95634.44;;;6.42;100.00
70254;BME280;57649;42.968;1.608;2024-03-08T06:25:53;95632.97;;;6.54;100.00
70254;BME280;57649;42.968;1.608;2024-03-08T06:28:18;95631.56;;;6.58;100.00
70254;BME280;57649;42.968;1.608;2024-03-08T06:30:44;95630.75;;;6.58;100.00
70254;BME280;57649;42.968;1.608;2024-03-08T06:33:09;95623.41;;;6.60;100.00
70254;BME280;57649;42.968;1.608;2024-03-08T06:35:36;95631.00;;;6.63;100.00
70254;BME280;57649;42.968;1.608;2024-03-08T06:38:04;95640.06;;;6.68;100.00
70254;BME280;57649;42.968;1.608;2024-03-08T06:40:29;95629.06;;;6.71;100.00
70254;BME280;57649;42.968;1.608;2024-03-08T06:42:54;95648.03;;;6.68;100.00
70254;BME280;57649;42.968;1.608;2024-03-08T06:45:20;95659.75;;;6.74;100.00
70254;BME280;57649;42.968;1.608;2024-03-08T06:47:47;95665.97;;;6.81;100.00
70254;BME280;57649;42.968;1.608;2024-03-08T06:50:13;95653.13;;;6.85;100.00
70254;BME280;57649;42.968;1.608;2024-03-08T06:52:40;95633.06;;;6.82;100.00
70254;BME280;57649;42.968;1.608;2024-03-08T06:55:08;95632.56;;;6.93;100.00
70254;BME280;57649;42.968;1.608;2024-03-08T06:57:38;95642.69;;;6.83;100.00
70254;BME280;57649;42.968;1.608;2024-03-08T07:00:04;95655.50;;;6.94;100.00
70254;BME280;57649;42.968;1.608;2024-03-08T07:02:34;95641.69;;;6.84;100.00
70254;BME280;57649;42.968;1.608;2024-03-08T07:05:01;95625.84;;;6.98;100.00
70254;BME280;57649;42.968;1.608;2024-03-08T07:07:26;95630.94;;;6.78;100.00
70254;BME280;57649;42.968;1.608;2024-03-08T07:09:52;95638.75;;;6.79;100.00
70254;BME280;57649;42.968;1.608;2024-03-08T07:12:17;95630.31;;;6.75;100.00
70254;BME280;57649;42.968;1.608;2024-03-08T07:14:43;95633.16;;;6.89;100.00
70254;BME280;57649;42.968;1.608;2024-03-08T07:17:11;95629.47;;;6.90;100.00
70254;BME280;57649;42.968;1.608;2024-03-08T07:19:37;95636.16;;;6.86;100.00
70254;BME280;57649;42.968;1.608;2024-03-08T07:22:03;95642.69;;;6.83;100.00
70254;BME280;57649;42.968;1.608;2024-03-08T07:24:29;95638.75;;;6.79;100.00
70254;BME280;57649;42.968;1.608;2024-03-08T07:27:16;95621.44;;;6.83;100.00
70254;BME280;57649;42.968;1.608;2024-03-08T07:29:42;95619.91;;;6.96;100.00
70254;BME280;57649;42.968;1.608;2024-03-08T07:32:08;95641.03;;;6.82;100.00
70254;BME280;57649;42.968;1.608;2024-03-08T07:34:50;95649.50;;;6.71;100.00
70254;BME280;57649;42.968;1.608;2024-03-08T07:37:17;95649.22;;;6.81;100.00
70254;BME280;57649;42.968;1.608;2024-03-08T07:39:42;95641.25;;;7.02;100.00
70254;BME280;57649;42.968;1.608;2024-03-08T07:42:08;95643.75;;;7.25;100.00
70254;BME280;57649;42.968;1.608;2024-03-08T07:44:35;95642.78;;;7.11;100.00
70254;BME280;57649;42.968;1.608;2024-03-08T07:47:00;95648.28;;;7.10;100.00
70254;BME280;57649;42.968;1.608;2024-03-08T07:49:25;95640.63;;;7.22;100.00
70254;BME280;57649;42.968;1.608;2024-03-08T07:51:51;95635.94;;;7.24;100.00
70254;BME280;57649;42.968;1.608;2024-03-08T07:54:17;95639.78;;;7.21;100.00
70254;BME280;57649;42.968;1.608;2024-03-08T07:56:42;95633.31;;;7.30;100.00
70254;BME280;57649;42.968;1.608;2024-03-08T07:59:08;95629.66;;;7.31;100.00
70254;BME280;57649;42.968;1.608;2024-03-08T08:01:33;95624.66;;;7.22;100.00
70254;BME280;57649;42.968;1.608;2024-03-08T08:03:59;95649.63;;;7.21;100.00
70254;BME280;57649;42.968;1.608;2024-03-08T08:06:26;95658.41;;;7.21;100.00
70254;BME280;57649;42.968;1.608;2024-03-08T08:08:51;95648.38;;;7.17;100.00
70254;BME280;57649;42.968;1.608;2024-03-08T08:11:17;95634.09;;;7.03;100.00
70254;BME280;57649;42.968;1.608;2024-03-08T08:13:43;95641.97;;;7.11;100.00
70254;BME280;57649;42.968;1.608;2024-03-08T08:16:09;95639.44;;;7.24;100.00
70254;BME280;57649;42.968;1.608;2024-03-08T08:18:36;95651.50;;;7.48;100.00
70254;BME280;57649;42.968;1.608;2024-03-08T08:21:02;95657.09;;;7.54;100.00
70254;BME280;57649;42.968;1.608;2024-03-08T08:23:28;95661.91;;;7.43;100.00
70254;BME280;57649;42.968;1.608;2024-03-08T08:25:55;95676.50;;;7.47;100.00
70254;BME280;57649;42.968;1.608;2024-03-08T08:28:20;95682.09;;;7.31;100.00
70254;BME280;57649;42.968;1.608;2024-03-08T08:30:46;95697.91;;;7.18;100.00
70254;BME280;57649;42.968;1.608;2024-03-08T08:33:11;95702.66;;;7.22;100.00
70254;BME280;57649;42.968;1.608;2024-03-08T08:35:37;95702.66;;;7.22;100.00
70254;BME280;57649;42.968;1.608;2024-03-08T08:38:04;95705.19;;;7.30;100.00
70254;BME280;57649;42.968;1.608;2024-03-08T08:40:29;95704.63;;;7.35;100.00
70254;BME280;57649;42.968;1.608;2024-03-08T08:42:57;95708.75;;;7.38;100.00
70254;BME280;57649;42.968;1.608;2024-03-08T08:45:23;95723.78;;;7.45;100.00
70254;BME280;57649;42.968;1.608;2024-03-08T08:47:48;95716.56;;;7.39;100.00
70254;BME280;57649;42.968;1.608;2024-03-08T08:50:15;95723.91;;;7.37;100.00
70254;BME280;57649;42.968;1.608;2024-03-08T08:52:42;95717.31;;;7.33;100.00
70254;BME280;57649;42.968;1.608;2024-03-08T08:55:09;95724.22;;;7.27;100.00
70254;BME280;57649;42.968;1.608;2024-03-08T08:57:36;95717.16;;;7.20;100.00
70254;BME280;57649;42.968;1.608;2024-03-08T09:00:02;95717.06;;;7.28;100.00
70254;BME280;57649;42.968;1.608;2024-03-08T09:02:32;95707.94;;;7.01;100.00
70254;BME280;57649;42.968;1.608;2024-03-08T09:05:00;95712.34;;;7.08;100.00
70254;BME280;57649;42.968;1.608;2024-03-08T09:07:29;95699.47;;;7.12;100.00
70254;BME280;57649;42.968;1.608;2024-03-08T09:09:54;95691.75;;;7.17;100.00
70254;BME280;57649;42.968;1.608;2024-03-08T09:12:23;95693.72;;;7.30;100.00
70254;BME280;57649;42.968;1.608;2024-03-08T09:14:49;95684.78;;;7.38;100.00
70254;BME280;57649;42.968;1.608;2024-03-08T09:17:15;95681.88;;;7.54;100.00
70254;BME280;57649;42.968;1.608;2024-03-08T09:19:45;95687.56;;;7.72;100.00
70254;BME280;57649;42.968;1.608;2024-03-08T09:22:10;95666.16;;;7.87;100.00
70254;BME280;57649;42.968;1.608;2024-03-08T09:24:36;95660.31;;;7.99;100.00
70254;BME280;57649;42.968;1.608;2024-03-08T09:27:01;95635.47;;;7.92;100.00
70254;BME280;57649;42.968;1.608;2024-03-08T09:29:27;95602.63;;;8.19;100.00
70254;BME280;57649;42.968;1.608;2024-03-08T09:31:53;95588.88;;;8.22;100.00
70254;BME280;57649;42.968;1.608;2024-03-08T09:34:18;95560.63;;;8.35;100.00
70254;BME280;57649;42.968;1.608;2024-03-08T09:36:44;95555.84;;;8.72;100.00
70254;BME280;57649;42.968;1.608;2024-03-08T09:39:10;95525.53;;;8.99;100.00
70254;BME280;57649;42.968;1.608;2024-03-08T09:41:41;95510.75;;;9.37;100.00
70254;BME280;57649;42.968;1.608;2024-03-08T09:44:07;95507.38;;;9.81;100.00
70254;BME280;57649;42.968;1.608;2024-03-08T09:46:34;95506.38;;;10.34;100.00
70254;BME280;57649;42.968;1.608;2024-03-08T09:48:59;95494.97;;;10.84;100.00
70254;BME280;57649;42.968;1.608;2024-03-08T09:51:28;95516.63;;;11.40;100.00
70254;BME280;57649;42.968;1.608;2024-03-08T09:53:54;95507.19;;;11.55;100.00
70254;BME280;57649;42.968;1.608;2024-03-08T09:56:21;95515.03;;;11.75;100.00
70254;BME280;57649;42.968;1.608;2024-03-08T09:58:48;95519.13;;;12.22;100.00
70254;BME280;57649;42.968;1.608;2024-03-08T10:01:40;95504.72;;;12.35;100.00
70254;BME280;57649;42.968;1.608;2024-03-08T10:04:06;95492.00;;;12.60;100.00
70254;BME280;57649;42.968;1.608;2024-03-08T10:06:32;95483.56;;;12.87;100.00
70254;BME280;57649;42.968;1.608;2024-03-08T10:08:57;95462.94;;;13.11;100.00
70254;BME280;57649;42.968;1.608;2024-03-08T10:11:24;95455.25;;;13.26;94.56
70254;BME280;57649;42.968;1.608;2024-03-08T10:13:50;95443.25;;;13.53;97.39
70254;BME280;57649;42.968;1.608;2024-03-08T10:16:16;95448.78;;;13.98;90.40
70254;BME280;57649;42.968;1.608;2024-03-08T10:18:42;95443.06;;;13.95;92.56
70254;BME280;57649;42.968;1.608;2024-03-08T10:21:11;95434.47;;;13.69;91.34
70254;BME280;57649;42.968;1.608;2024-03-08T10:23:36;95428.16;;;13.63;99.13
70254;BME280;57649;42.968;1.608;2024-03-08T10:26:17;95435.38;;;13.27;100.00
70254;BME280;57649;42.968;1.608;2024-03-08T10:28:47;95433.03;;;13.07;96.93
70254;BME280;57649;42.968;1.608;2024-03-08T10:31:16;95441.00;;;12.60;94.09
70254;BME280;57649;42.968;1.608;2024-03-08T10:33:43;95443.03;;;12.88;92.04
70254;BME280;57649;42.968;1.608;2024-03-08T10:36:10;95440.75;;;13.16;99.12
70254;BME280;57649;42.968;1.608;2024-03-08T10:38:37;95438.53;;;13.72;92.70
70254;BME280;57649;42.968;1.608;2024-03-08T10:41:04;95433.66;;;14.50;88.69
70254;BME280;57649;42.968;1.608;2024-03-08T10:43:35;95428.38;;;15.00;82.89
70254;BME280;57649;42.968;1.608;2024-03-08T10:49:16;95446.31;;;16.24;85.03
70254;BME280;57649;42.968;1.608;2024-03-08T10:51:45;95449.00;;;16.46;76.22
70254;BME280;57649;42.968;1.608;2024-03-08T10:54:13;95462.91;;;16.32;73.52
70254;BME280;57649;42.968;1.608;2024-03-08T10:56:40;95469.59;;;16.52;76.93
70254;BME280;57649;42.968;1.608;2024-03-08T10:59:08;95468.97;;;16.01;75.72
70254;BME280;57649;42.968;1.608;2024-03-08T11:01:33;95464.09;;;15.81;77.49
70254;BME280;57649;42.968;1.608;2024-03-08T11:03:59;95470.84;;;15.61;81.28
70254;BME280;57649;42.968;1.608;2024-03-08T11:09:04;95451.53;;;15.01;80.83
70254;BME280;57649;42.968;1.608;2024-03-08T11:11:38;95446.25;;;15.07;84.02
70254;BME280;57649;42.968;1.608;2024-03-08T11:14:42;95455.41;;;15.23;81.38
70254;BME280;57649;42.968;1.608;2024-03-08T11:17:08;95467.16;;;15.16;81.34
70254;BME280;57649;42.968;1.608;2024-03-08T11:19:33;95469.69;;;15.40;81.03
70254;BME280;57649;42.968;1.608;2024-03-08T11:22:00;95474.28;;;15.06;80.23
70254;BME280;57649;42.968;1.608;2024-03-08T11:24:26;95473.81;;;14.39;79.06
70254;BME280;57649;42.968;1.608;2024-03-08T11:26:56;95470.88;;;14.81;84.49
70254;BME280;57649;42.968;1.608;2024-03-08T11:32:15;95476.47;;;14.63;87.91
70254;BME280;57649;42.968;1.608;2024-03-08T11:34:45;95474.66;;;13.64;93.05
70254;BME280;57649;42.968;1.608;2024-03-08T11:37:15;95492.75;;;14.04;88.52
70254;BME280;57649;42.968;1.608;2024-03-08T11:39:47;95485.41;;;13.99;90.92
70254;BME280;57649;42.968;1.608;2024-03-08T11:42:16;95482.38;;;13.37;94.24
70254;BME280;57649;42.968;1.608;2024-03-08T11:44:46;95489.03;;;13.46;95.03
70254;BME280;57649;42.968;1.608;2024-03-08T11:47:13;95487.38;;;13.21;96.03
70254;BME280;57649;42.968;1.608;2024-03-08T11:49:40;95493.69;;;13.15;98.17
70254;BME280;57649;42.968;1.608;2024-03-08T11:52:11;95498.22;;;13.15;98.40
70254;BME280;57649;42.968;1.608;2024-03-08T11:54:38;95495.06;;;13.06;96.75
70254;BME280;57649;42.968;1.608;2024-03-08T11:57:04;95492.38;;;13.06;98.08
70254;BME280;57649;42.968;1.608;2024-03-08T11:59:30;95494.56;;;12.97;99.04
70254;BME280;57649;42.968;1.608;2024-03-08T12:02:03;95481.31;;;12.84;96.49
70254;BME280;57649;42.968;1.608;2024-03-08T12:04:30;95473.50;;;12.82;95.24
70254;BME280;57649;42.968;1.608;2024-03-08T12:06:56;95487.16;;;12.50;99.41
70254;BME280;57649;42.968;1.608;2024-03-08T12:09:24;95504.97;;;12.15;100.00
70254;BME280;57649;42.968;1.608;2024-03-08T12:11:50;95480.78;;;12.63;99.34
70254;BME280;57649;42.968;1.608;2024-03-08T12:14:17;95488.22;;;12.49;99.35
70254;BME280;57649;42.968;1.608;2024-03-08T12:16:43;95486.59;;;12.90;99.03
70254;BME280;57649;42.968;1.608;2024-03-08T12:19:09;95472.38;;;12.60;99.56
70254;BME280;57649;42.968;1.608;2024-03-08T12:21:35;95473.63;;;12.27;100.00
70254;BME280;57649;42.968;1.608;2024-03-08T12:24:06;95476.66;;;12.91;97.76
70254;BME280;57649;42.968;1.608;2024-03-08T12:26:38;95477.72;;;12.90;95.72
70254;BME280;57649;42.968;1.608;2024-03-08T12:29:18;95481.22;;;12.90;96.29
70254;BME280;57649;42.968;1.608;2024-03-08T12:31:46;95478.63;;;12.84;95.76
70254;BME280;57649;42.968;1.608;2024-03-08T12:34:12;95494.13;;;12.70;95.66
70254;BME280;57649;42.968;1.608;2024-03-08T12:36:44;95496.44;;;12.18;97.19
70254;BME280;57649;42.968;1.608;2024-03-08T12:39:10;95485.50;;;12.19;98.47
70254;BME280;57649;42.968;1.608;2024-03-08T12:41:40;95493.63;;;12.31;98.26
70254;BME280;57649;42.968;1.608;2024-03-08T12:44:08;95501.63;;;12.49;98.26
70254;BME280;57649;42.968;1.608;2024-03-08T12:46:39;95498.06;;;12.37;97.91
70254;BME280;57649;42.968;1.608;2024-03-08T12:49:10;95488.88;;;12.15;100.00
70254;BME280;57649;42.968;1.608;2024-03-08T12:51:37;95488.31;;;12.24;100.00
70254;BME280;57649;42.968;1.608;2024-03-08T12:54:04;95498.22;;;12.42;98.99
70254;BME280;57649;42.968;1.608;2024-03-08T12:56:33;95488.06;;;12.44;96.22
70254;BME280;57649;42.968;1.608;2024-03-08T12:59:02;95500.97;;;12.36;96.17
70254;BME280;57649;42.968;1.608;2024-03-08T13:01:28;95510.69;;;12.00;95.93
70254;BME280;57649;42.968;1.608;2024-03-08T13:03:54;95499.44;;;12.09;97.69
70254;BME280;57649;42.968;1.608;2024-03-08T13:06:20;95499.25;;;12.41;97.81